LSME - Emmen, Switzerland
Distance from HB9FEE: SW 14km
Updated: Wed, 14-Nov-2018 2:50pm CET
Overcast
Overcast
 Wind from varies
Wind: varies 4 km/h
Temperature: 9°C
Dew Point: 7°C
Humidity: 87%
Barometer: 1028 hPa
Clouds: Overcast
Visibility: 5 km
Cloud details: Overcast 244 m
2018/11/14 13:50 LSME 141350Z VRB02KT 4500 OVC008 09/07 Q1028 RMK GRN
LSZC - Buochs, Switzerland
Distance from HB9FEE: S 25km
Updated: Wed, 14-Nov-2018 2:50pm CET
Overcast
Overcast
 Wind from varies
Wind: varies 4 km/h
Temperature: 10°C
Dew Point: 7°C
Humidity: 82%
Barometer: 1028 hPa
Clouds: Overcast
Visibility: 10 km
Cloud details: Overcast 366 m
2018/11/14 13:50 LSZC 141350Z VRB02KT 9999 OVC012 10/07 Q1028 RMK SVFR
 
LSMA - Alpnach, Switzerland
Distance from HB9FEE: SSW 29km
Updated: Wed, 14-Nov-2018 2:50pm CET
Overcast
Overcast
 Wind from S
Wind: S 6 km/h
Temperature: 10°C
Dew Point: 7°C
Humidity: 82%
Barometer: 1028 hPa
Clouds: Overcast
Visibility: 10 km
Cloud details: Overcast 305 m
2018/11/14 13:50 LSMA 141350Z 17003KT 130V210 9999 OVC010 10/07 Q1028 RMK GRN
LSMD - Dubendorf, Switzerland
Distance from HB9FEE: NE 29km
Updated: Wed, 14-Nov-2018 2:50pm CET
Overcast
Overcast
 Wind from varies
Wind: varies 4 km/h
Temperature: 9°C
Dew Point: 7°C
Humidity: 87%
Barometer: 1028 hPa
Clouds: Overcast
Visibility: 7 km
Cloud details: Overcast 213 m
2018/11/14 13:50 LSMD 141350Z VRB02KT 7000 OVC007 09/07 Q1028 RMK GRN
 
LSZH - Zurich-Kloten (a, Switzerland
Distance from HB9FEE: NNE 33km
Updated: Wed, 14-Nov-2018 2:50pm CET
Mist, Overcast
Mist, Overcast
 Wind from varies
Wind: varies 2 km/h
Temperature: 8°C
Dew Point: 6°C
Humidity: 87%
Barometer: 1028 hPa
Summary: Mist
Clouds: Overcast
Visibility: 5 km
Cloud details: Few Clouds 122 m
Overcast 183 m
2018/11/14 13:50 LSZH 141350Z VRB01KT 5000 BR FEW004 OVC006 08/06 Q1028 NOSIG
LSMM - Meiringen, Switzerland
Distance from HB9FEE: SSW 54km
Updated: Wed, 14-Nov-2018 2:50pm CET
Overcast
Overcast
 Wind from WSW
Wind: WSW 6 km/h
Temperature: 8°C
Dew Point: 6°C
Humidity: 87%
Barometer: 1028 hPa
Clouds: Overcast
Visibility: 16 miles
Cloud details: Overcast 183 m
2018/11/14 13:50 LSMM 141350Z AUTO 24003KT 210V300 9999NDV OVC006 08/06 Q1028 RMK
 
LSZB - Bern/Belp, Switzerland
Distance from HB9FEE: WSW 76km
Updated: Wed, 14-Nov-2018 2:50pm CET
Mostly Cloudy
Mostly Cloudy
 Wind from N
Wind: N 7 km/h
Temperature: 10°C
Wind Chill: 9°C
Dew Point: 7°C
Humidity: 82%
Barometer: 1027 hPa
Clouds: Mostly Cloudy
Visibility: 10 km
Cloud details: Mostly Cloudy 518 m
2018/11/14 13:50 LSZB 141350Z 36004KT 9999 BKN017 10/07 Q1027 NOSIG
LSZG - Grenchen, Switzerland
Distance from HB9FEE: W 76km
Updated: Wed, 14-Nov-2018 2:50pm CET
Overcast
Overcast
 Wind from SSW
Wind: SSW 6 km/h
Temperature: 11°C
Dew Point: 9°C
Humidity: 88%
Barometer: 1027 hPa
Clouds: Overcast
Visibility: 10 km
Cloud details: Few Clouds 152 m
Mostly Cloudy 488 m
Overcast 610 m
2018/11/14 13:50 LSZG 141350Z 20003KT 9999 FEW005 BKN016 OVC020 11/09 Q1027 NOSIG
 
LFSB - Bale/Mulhouse, France
Distance from HB9FEE: NW 82km
Updated: Wed, 14-Nov-2018 3:00pm CET
Few Clouds
Few Clouds
 Wind from E
Wind: E 11 km/h
Temperature: 12°C
Dew Point: 8°C
Humidity: 77%
Barometer: 1027 hPa
Clouds: Few Clouds
Visibility: 10 km
Cloud details: Few Clouds 610 m
2018/11/14 14:00 LFSB 141400Z 10006KT 9999 FEW020 12/08 Q1027 NOSIG
LSZR - Rheineck/Altenrh, Switzerland
Distance from HB9FEE: ENE 92km
Updated: Wed, 14-Nov-2018 2:50pm CET
Mostly Cloudy
Mostly Cloudy
 Wind from WNW
Wind: WNW 9 km/h
Temperature: 7°C
Wind Chill: 6°C
Dew Point: 7°C
Humidity: 100%
Barometer: 1028 hPa
Clouds: Mostly Cloudy
Visibility: 7 km
Cloud details: Mostly Cloudy 152 m
2018/11/14 13:50 LSZR 141350Z 29005KT 7000 BKN005 07/07 Q1028 NOSIG RMK I
 
LSZL - Locarno, Switzerland
Distance from HB9FEE: SSE 119km
Updated: Wed, 14-Nov-2018 2:50pm CET
Few Clouds
Few Clouds
 Wind from WSW
Wind: WSW 6 km/h
Temperature: 15°C
Dew Point: 9°C
Humidity: 68%
Barometer: 1027 hPa
Clouds: Few Clouds
Visibility: 10 km
Cloud details: Few Clouds 1676 m
2018/11/14 13:50 LSZL 141350Z 25003KT 9999 FEW055 15/09 Q1027 RMK BLU+
LSMP - Payerne (mil/Aut, Switzerland
Distance from HB9FEE: WSW 121km
Updated: Wed, 14-Nov-2018 2:50pm CET
Patches of fog, Overcast
Patches of fog, Overcast
 Wind from varies
Wind: varies 4 km/h
Temperature: 11°C
Dew Point: 8°C
Humidity: 82%
Barometer: 1027 hPa
Summary: Patches of Fog
Clouds: Overcast
Visibility: 8 km
Cloud details: Mostly Cloudy 396 m
Overcast 488 m
2018/11/14 13:50 LSMP 141350Z VRB02KT 8000 BCFG BKN013 OVC016 11/08 Q1027 RMK GRN
 
LSGC - Les Eplatures, Switzerland
Distance from HB9FEE: W 123km
Updated: Wed, 14-Nov-2018 2:50pm CET
Clear
Clear
 Wind from SSW
Wind: SSW 6 km/h
Temperature: 13°C
Dew Point: 7°C
Humidity: 67%
Barometer: 1026 hPa
Summary: Clear
Visibility: greater than 10 km
2018/11/14 13:50 LSGC 141350Z 20003KT CAVOK 13/07 Q1026
LSZS - Samedan, Switzerland
Distance from HB9FEE: ESE 133km
Updated: Wed, 14-Nov-2018 2:50pm CET
Clear
Clear
 Wind from SW
Wind: SW 9 km/h
Temperature: 10°C
Wind Chill: 9°C
Dew Point: -2°C
Humidity: 43%
Barometer: 1028 hPa
Summary: Clear
Visibility: greater than 10 km
2018/11/14 13:50 LSZS 141350Z 23005KT 200V260 CAVOK 10/M02 Q1028 RMK O
 
LSGS - Sion (mil/Civ/Au, Switzerland
Distance from HB9FEE: SW 137km
Updated: Wed, 14-Nov-2018 2:50pm CET

 Wind from varies
Wind: varies 0 km/h
2018/11/14 13:50 LSGS 141350Z AUTO /////KT ///V/// //// // ////// ////// ////// ///// Q////
LSZA - Lugano (pvt/Aut), Switzerland
Distance from HB9FEE: SSE 138km
Updated: Wed, 14-Nov-2018 2:50pm CET
Clear
Clear
 Wind from SSW
Wind: SSW 6 km/h
Temperature: 16°C
Dew Point: 10°C
Humidity: 68%
Barometer: 1027 hPa
Summary: Clear
Visibility: greater than 10 km
2018/11/14 13:50 LSZA 141350Z AUTO 21003KT CAVOK 16/10 Q1027